Time;durP1;ratioP1;P1;durP2;ratioP2;P2;SDS_P1;SDS_P2;PMS_P1;PMS_P2;Temp;Humidity;BMP_temperature;BMP_pressure;BME280_temperature;BME280_humidity;BME280_pressure;Samples;Min_cycle;Max_cycle;Signal;HPM_P1;HPM_P2
2021/12/03 00:00:59;;;;;;;9.57;6.72;;;8.90;62.50;;;;;;5054323;28;20021;-66
2021/12/03 00:03:25;;;;;;;10.68;7.70;;;8.90;62.00;;;;;;5053965;28;20103;-72
2021/12/03 00:05:53;;;;;;;13.60;6.93;;;8.90;61.60;;;;;;5054446;28;20021;-67
2021/12/03 00:08:19;;;;;;;10.23;7.05;;;8.90;61.20;;;;;;5053773;28;20031;-68
2021/12/03 00:10:49;;;;;;;10.65;5.88;;;8.80;61.50;;;;;;5054150;28;20078;-73
2021/12/03 00:13:15;;;;;;;13.95;6.78;;;8.80;61.10;;;;;;5035770;28;20036;-70
2021/12/03 00:15:41;;;;;;;8.57;6.40;;;8.80;60.40;;;;;;5054084;28;20105;-69
2021/12/03 00:18:07;;;;;;;11.15;6.03;;;8.70;60.40;;;;;;5035498;28;20108;-67
2021/12/03 00:20:35;;;;;;;9.75;5.80;;;8.60;59.70;;;;;;5053719;28;20568;-72
2021/12/03 00:23:03;;;;;;;9.60;5.60;;;8.70;60.00;;;;;;5052926;28;20039;-74
2021/12/03 00:25:29;;;;;;;10.65;5.45;;;8.70;59.80;;;;;;5053772;28;20069;-70
2021/12/03 00:27:54;;;;;;;13.45;5.93;;;8.80;59.30;;;;;;5053692;28;20471;-71
2021/12/03 00:30:20;;;;;;;8.43;5.43;;;8.80;59.10;;;;;;5053141;28;20029;-68
2021/12/03 00:32:47;;;;;;;10.18;5.72;;;8.70;58.50;;;;;;5035881;28;20029;-70
2021/12/03 00:35:14;;;;;;;7.65;4.82;;;8.70;58.40;;;;;;5053122;28;20109;-66
2021/12/03 00:37:40;;;;;;;7.72;4.70;;;8.60;58.20;;;;;;5035428;28;20114;-68
2021/12/03 00:40:09;;;;;;;12.52;5.35;;;8.70;58.10;;;;;;5052799;28;20029;-73
2021/12/03 00:42:36;;;;;;;8.68;4.38;;;8.70;57.60;;;;;;5019047;28;20037;-66
2021/12/03 00:45:02;;;;;;;9.55;4.38;;;8.60;56.70;;;;;;5053294;28;20057;-68
2021/12/03 00:47:28;;;;;;;10.63;4.47;;;8.50;56.10;;;;;;5053732;28;20029;-68
2021/12/03 00:49:54;;;;;;;10.02;4.38;;;8.50;56.90;;;;;;5053320;28;20017;-68
2021/12/03 00:52:19;;;;;;;9.15;4.60;;;8.40;56.90;;;;;;5035091;28;20358;-68
2021/12/03 00:54:45;;;;;;;9.88;4.47;;;8.40;57.40;;;;;;5035113;28;20112;-66
2021/12/03 00:57:12;;;;;;;9.52;4.55;;;8.30;57.40;;;;;;5052750;28;20075;-65
2021/12/03 00:59:38;;;;;;;11.25;4.90;;;8.30;57.80;;;;;;5053117;28;20052;-67
2021/12/03 01:02:04;;;;;;;10.13;5.32;;;8.40;58.00;;;;;;5052664;28;20032;-69
2021/12/03 01:04:29;;;;;;;8.65;4.95;;;8.40;58.00;;;;;;5053140;28;20040;-62
2021/12/03 01:06:55;;;;;;;8.50;5.43;;;8.40;57.90;;;;;;5053180;28;20029;-69
2021/12/03 01:09:21;;;;;;;13.43;5.55;;;8.40;57.80;;;;;;5052222;28;20162;-71
2021/12/03 01:11:48;;;;;;;9.60;5.10;;;8.20;58.20;;;;;;5034968;28;20059;-65
2021/12/03 01:14:14;;;;;;;10.55;5.53;;;8.10;58.50;;;;;;5035091;28;20427;-65
2021/12/03 01:16:40;;;;;;;12.23;5.22;;;8.00;58.80;;;;;;5035135;28;20067;-67
2021/12/03 01:19:06;;;;;;;13.05;5.82;;;8.00;58.60;;;;;;5052058;28;20090;-70
2021/12/03 01:21:32;;;;;;;8.45;5.13;;;8.00;58.60;;;;;;5052872;28;20025;-67
2021/12/03 01:23:57;;;;;;;9.90;4.90;;;8.00;58.80;;;;;;5052622;28;20049;-68
2021/12/03 01:26:24;;;;;;;12.43;5.35;;;8.00;59.00;;;;;;5051971;28;20517;-66
2021/12/03 01:28:50;;;;;;;8.70;5.38;;;8.00;58.90;;;;;;5052021;28;20315;-68
2021/12/03 01:31:17;;;;;;;7.43;4.88;;;8.00;58.80;;;;;;5052252;28;20054;-71
2021/12/03 01:33:45;;;;;;;11.55;5.32;;;8.00;59.00;;;;;;5052531;28;20056;-64
2021/12/03 01:36:11;;;;;;;8.93;5.13;;;8.00;59.20;;;;;;5052135;28;20389;-72
2021/12/03 01:38:38;;;;;;;14.27;5.78;;;8.00;59.00;;;;;;5052739;28;20048;-62
2021/12/03 01:41:04;;;;;;;9.27;5.05;;;8.00;58.90;;;;;;5052140;28;20378;-64
2021/12/03 01:43:30;;;;;;;12.52;5.60;;;8.10;58.90;;;;;;5052062;28;20453;-72
2021/12/03 01:46:03;;;;;;;11.48;5.63;;;8.10;58.50;;;;;;5052227;28;20029;-74
2021/12/03 01:48:30;;;;;;;10.90;4.68;;;7.90;58.90;;;;;;5052429;28;20117;-68
2021/12/03 01:50:59;;;;;;;12.82;5.05;;;8.00;59.00;;;;;;5051977;28;20064;-69
2021/12/03 01:53:30;;;;;;;11.32;5.32;;;7.80;59.20;;;;;;5050582;28;20025;-72
2021/12/03 01:56:02;;;;;;;13.23;5.35;;;7.80;59.70;;;;;;5050877;28;20401;-78
2021/12/03 01:58:27;;;;;;;11.63;5.70;;;7.90;59.90;;;;;;5050157;28;20028;-68
2021/12/03 02:00:56;;;;;;;13.05;5.78;;;7.80;60.50;;;;;;5050782;28;20029;-67
2021/12/03 02:03:27;;;;;;;11.35;5.75;;;7.80;60.60;;;;;;5049923;28;20086;-65
2021/12/03 02:05:53;;;;;;;14.38;5.85;;;7.80;60.60;;;;;;5050766;28;20450;-64
2021/12/03 02:08:38;;;;;;;11.75;5.57;;;7.70;60.30;;;;;;5032264;28;20024;-62
2021/12/03 02:11:08;;;;;;;12.07;5.43;;;7.70;60.40;;;;;;5050328;28;20025;-67
2021/12/03 02:13:34;;;;;;;11.68;5.95;;;7.70;60.40;;;;;;5033269;28;20032;-65
2021/12/03 02:16:01;;;;;;;10.25;5.65;;;7.60;61.20;;;;;;5050834;28;20497;-65
2021/12/03 02:18:27;;;;;;;9.10;5.50;;;7.80;60.40;;;;;;5050496;28;20098;-63
2021/12/03 02:20:55;;;;;;;9.85;5.40;;;7.90;60.40;;;;;;5050711;28;20546;-67
2021/12/03 02:23:21;;;;;;;13.85;6.32;;;7.90;59.90;;;;;;5049955;28;20040;-64
2021/12/03 02:25:48;;;;;;;12.85;6.20;;;7.90;60.00;;;;;;5049939;28;20053;-65
2021/12/03 02:28:15;;;;;;;9.50;5.85;;;8.00;60.40;;;;;;5050491;28;20481;-67
2021/12/03 02:30:42;;;;;;;8.18;6.00;;;7.90;60.40;;;;;;5050561;28;20108;-65
2021/12/03 02:33:09;;;;;;;10.18;5.78;;;8.00;60.60;;;;;;5050550;28;20492;-66
2021/12/03 02:35:36;;;;;;;10.68;6.00;;;8.00;60.50;;;;;;5050481;28;20033;-72
2021/12/03 02:38:02;;;;;;;11.18;5.93;;;8.10;60.60;;;;;;5032994;28;20036;-73
2021/12/03 02:40:28;;;;;;;10.73;5.57;;;8.10;60.40;;;;;;5050832;28;20598;-63
2021/12/03 02:42:54;;;;;;;9.77;5.25;;;8.00;59.60;;;;;;5055557;28;20036;-67
2021/12/03 02:45:20;;;;;;;11.80;5.13;;;8.00;58.70;;;;;;5055098;28;20025;-67
2021/12/03 02:47:46;;;;;;;9.25;4.60;;;7.90;57.60;;;;;;5055293;28;20036;-70
2021/12/03 02:50:14;;;;;;;10.13;4.38;;;7.80;57.10;;;;;;5054953;28;20025;-63
2021/12/03 02:52:40;;;;;;;7.95;4.43;;;7.80;56.50;;;;;;5054486;28;20064;-69
2021/12/03 02:55:07;;;;;;;7.43;3.78;;;7.70;55.60;;;;;;5054977;28;20111;-68
2021/12/03 02:57:33;;;;;;;10.05;4.50;;;7.70;54.70;;;;;;5055586;28;20029;-70
2021/12/03 02:59:59;;;;;;;8.63;3.90;;;7.70;54.10;;;;;;5055111;28;20024;-67
2021/12/03 03:02:25;;;;;;;9.70;3.67;;;7.70;54.00;;;;;;5036678;28;20032;-69
2021/12/03 03:04:52;;;;;;;7.55;3.80;;;7.70;54.10;;;;;;5037316;28;20044;-68
2021/12/03 03:07:18;;;;;;;9.00;4.13;;;7.70;54.00;;;;;;5054707;28;20068;-70
2021/12/03 03:09:45;;;;;;;9.38;3.30;;;7.70;54.00;;;;;;5054482;28;20031;-70
2021/12/03 03:12:12;;;;;;;5.75;3.72;;;7.60;53.20;;;;;;5054366;28;20033;-72
2021/12/03 03:14:59;;;;;;;6.82;3.72;;;7.50;53.00;;;;;;5036945;28;20021;-66
2021/12/03 03:17:27;;;;;;;8.77;3.65;;;7.50;53.70;;;;;;5054111;28;20297;-68
2021/12/03 03:19:55;;;;;;;9.50;3.60;;;7.60;53.80;;;;;;5054941;28;20021;-76
2021/12/03 03:22:22;;;;;;;8.75;4.00;;;7.60;54.00;;;;;;5052790;28;20033;-69
2021/12/03 03:24:53;;;;;;;6.45;3.45;;;7.70;54.00;;;;;;5035986;28;20185;-69
2021/12/03 03:27:21;;;;;;;10.15;3.78;;;7.70;54.30;;;;;;5036575;28;20564;-67
2021/12/03 03:29:48;;;;;;;8.02;3.90;;;7.80;53.90;;;;;;5054725;28;20044;-69
2021/12/03 03:32:16;;;;;;;6.32;3.25;;;7.80;54.20;;;;;;5054169;28;20056;-74
2021/12/03 03:37:26;;;;;;;7.55;3.45;;;7.70;54.40;;;;;;5053691;28;20121;-71
2021/12/03 03:39:51;;;;;;;9.43;3.05;;;7.70;54.30;;;;;;5036590;28;20076;-71
2021/12/03 03:42:17;;;;;;;4.60;2.95;;;7.50;54.60;;;;;;5053683;28;20036;-68
2021/12/03 03:44:44;;;;;;;7.30;3.15;;;7.50;54.50;;;;;;5054158;28;20538;-70
2021/12/03 03:47:10;;;;;;;8.25;3.47;;;7.50;54.40;;;;;;5053895;28;20029;-66
2021/12/03 03:49:36;;;;;;;7.82;3.30;;;7.50;54.70;;;;;;5054397;28;20099;-65
2021/12/03 03:52:04;;;;;;;7.00;3.10;;;7.50;54.40;;;;;;5053975;28;20029;-67
2021/12/03 03:54:29;;;;;;;7.30;3.42;;;7.50;54.50;;;;;;5035500;28;20079;-67
2021/12/03 03:56:55;;;;;;;6.22;3.33;;;7.60;54.90;;;;;;5054029;28;20025;-70
2021/12/03 03:59:22;;;;;;;6.57;3.38;;;7.60;54.70;;;;;;5053433;28;20029;-69
2021/12/03 04:01:50;;;;;;;11.38;3.70;;;7.50;54.70;;;;;;5053757;28;20131;-67
2021/12/03 04:04:16;;;;;;;10.00;3.95;;;7.50;54.90;;;;;;5053443;28;20489;-65
2021/12/03 04:06:42;;;;;;;5.40;3.15;;;7.50;55.30;;;;;;5053931;28;20227;-64
2021/12/03 04:09:09;;;;;;;6.38;3.50;;;7.40;55.10;;;;;;5035632;28;20074;-67
2021/12/03 04:11:35;;;;;;;7.10;3.40;;;7.40;55.40;;;;;;5053768;28;20104;-68
2021/12/03 04:14:01;;;;;;;6.40;3.10;;;7.30;54.10;;;;;;5053587;28;20458;-68
2021/12/03 04:16:28;;;;;;;4.88;2.92;;;7.20;54.70;;;;;;5053065;28;20040;-65
2021/12/03 04:18:54;;;;;;;9.55;3.40;;;7.30;54.70;;;;;;5053182;28;20493;-66
2021/12/03 04:21:21;;;;;;;4.63;3.10;;;7.40;54.50;;;;;;5035082;28;20485;-68
2021/12/03 04:23:47;;;;;;;7.60;2.95;;;7.50;54.30;;;;;;5053686;28;20039;-70
2021/12/03 04:26:13;;;;;;;9.60;3.38;;;7.50;54.50;;;;;;5052701;28;20056;-65
2021/12/03 04:28:39;;;;;;;8.60;3.33;;;7.50;54.50;;;;;;5053951;28;20029;-73
2021/12/03 04:31:05;;;;;;;6.28;3.10;;;7.30;54.80;;;;;;5036334;28;20027;-70
2021/12/03 04:33:31;;;;;;;8.23;3.42;;;7.30;55.00;;;;;;5052661;28;20029;-69
2021/12/03 04:35:56;;;;;;;21.52;3.50;;;7.30;54.80;;;;;;5035928;28;20079;-64
2021/12/03 04:38:22;;;;;;;10.60;3.30;;;7.30;55.10;;;;;;5053504;28;20469;-72
2021/12/03 04:40:49;;;;;;;6.57;2.92;;;7.30;55.00;;;;;;5053668;28;20032;-71
2021/12/03 04:43:14;;;;;;;8.13;3.05;;;7.10;54.50;;;;;;5053077;28;20052;-72
2021/12/03 04:45:40;;;;;;;10.55;3.65;;;6.90;55.10;;;;;;5053470;28;20091;-66
2021/12/03 04:48:07;;;;;;;9.63;3.60;;;6.80;55.30;;;;;;5053186;28;20033;-65
2021/12/03 04:50:39;;;;;;;6.78;3.00;;;6.70;55.70;;;;;;5035103;28;20028;-72
2021/12/03 04:53:05;;;;;;;5.38;2.90;;;6.60;55.90;;;;;;5053223;28;20035;-68
2021/12/03 04:55:32;;;;;;;6.78;3.40;;;6.60;56.30;;;;;;5052732;28;20025;-71
2021/12/03 04:57:58;;;;;;;10.93;3.53;;;6.60;56.40;;;;;;5035637;28;20488;-66
2021/12/03 05:00:26;;;;;;;11.90;3.63;;;6.60;56.60;;;;;;5052261;28;20029;-68
2021/12/03 05:02:53;;;;;;;9.38;3.40;;;6.60;56.70;;;;;;5052726;28;20094;-63
2021/12/03 05:05:22;;;;;;;8.00;2.85;;;6.50;56.90;;;;;;5033398;28;20025;-64
2021/12/03 05:10:19;;;;;;;11.45;3.25;;;6.50;57.20;;;;;;5052334;28;20052;-67
2021/12/03 05:12:45;;;;;;;8.75;3.28;;;6.60;57.20;;;;;;5052821;28;20123;-67
2021/12/03 05:15:11;;;;;;;8.20;3.35;;;6.60;57.00;;;;;;5051852;28;20096;-64
2021/12/03 05:17:36;;;;;;;8.35;2.92;;;6.60;57.10;;;;;;5034723;28;20039;-64
2021/12/03 05:20:03;;;;;;;9.25;3.78;;;6.50;57.30;;;;;;5052406;28;20032;-66
2021/12/03 05:22:29;;;;;;;8.88;3.63;;;6.40;57.60;;;;;;5034131;28;20037;-65
2021/12/03 05:24:55;;;;;;;5.63;3.13;;;6.30;58.10;;;;;;5052065;28;20075;-68
2021/12/03 05:27:20;;;;;;;7.55;3.75;;;6.40;58.20;;;;;;5052001;28;20031;-68
2021/12/03 05:29:48;;;;;;;6.32;2.97;;;6.40;58.60;;;;;;5034618;28;20116;-71
2021/12/03 05:32:16;;;;;;;9.43;3.55;;;6.30;58.80;;;;;;5051705;28;20120;-73
2021/12/03 05:34:41;;;;;;;13.35;3.75;;;6.30;59.00;;;;;;5052599;28;20036;-69
2021/12/03 05:37:08;;;;;;;13.18;4.32;;;6.30;59.10;;;;;;5034354;28;20029;-69
2021/12/03 05:39:35;;;;;;;9.68;3.63;;;6.40;59.20;;;;;;5034162;28;20025;-69
2021/12/03 05:42:01;;;;;;;12.52;4.03;;;6.40;59.10;;;;;;5051923;28;20048;-69
2021/12/03 05:44:29;;;;;;;13.02;4.30;;;6.40;59.10;;;;;;5051404;28;20482;-71
2021/12/03 05:46:56;;;;;;;7.50;3.80;;;6.50;59.20;;;;;;5051915;28;20033;-66
2021/12/03 05:49:22;;;;;;;7.60;4.10;;;6.50;59.40;;;;;;5033991;28;20036;-66
2021/12/03 05:51:48;;;;;;;14.68;4.45;;;6.50;59.60;;;;;;5034507;28;20021;-64
2021/12/03 05:54:13;;;;;;;8.75;4.18;;;6.60;59.60;;;;;;5051878;28;20568;-70
2021/12/03 05:56:39;;;;;;;8.50;3.95;;;6.60;59.40;;;;;;5052068;28;20405;-70
2021/12/03 05:59:05;;;;;;;5.40;3.75;;;6.60;59.90;;;;;;5051671;28;20029;-66
2021/12/03 06:01:31;;;;;;;9.32;4.75;;;6.70;59.30;;;;;;5051733;28;20025;-65
2021/12/03 06:03:56;;;;;;;12.18;4.72;;;6.70;59.20;;;;;;5033832;28;20486;-69
2021/12/03 06:06:22;;;;;;;14.18;4.93;;;6.80;59.10;;;;;;5051379;28;20432;-70
2021/12/03 06:08:49;;;;;;;9.95;4.40;;;6.70;59.30;;;;;;5051837;28;20417;-71
2021/12/03 06:11:14;;;;;;;8.65;3.88;;;6.70;59.50;;;;;;5051386;28;20040;-67
2021/12/03 06:13:40;;;;;;;14.13;4.07;;;6.60;59.60;;;;;;5052442;28;20029;-64
2021/12/03 06:16:11;;;;;;;9.43;4.65;;;6.70;60.10;;;;;;5051456;28;20098;-66
2021/12/03 06:18:38;;;;;;;13.57;4.45;;;6.70;59.70;;;;;;5051958;28;20120;-65
2021/12/03 06:21:06;;;;;;;7.97;4.03;;;6.70;59.80;;;;;;5051829;28;20473;-66
2021/12/03 06:23:32;;;;;;;12.20;5.32;;;6.70;59.70;;;;;;5033173;28;20500;-65
2021/12/03 06:25:59;;;;;;;9.73;5.32;;;6.70;60.40;;;;;;5051691;28;20056;-66
2021/12/03 06:28:25;;;;;;;8.98;5.00;;;6.70;60.00;;;;;;5033534;28;20421;-68
2021/12/03 06:30:52;;;;;;;10.68;5.35;;;6.70;60.00;;;;;;5051757;28;20028;-63
2021/12/03 06:33:19;;;;;;;10.65;5.07;;;6.60;60.40;;;;;;5051635;28;20037;-64
2021/12/03 06:35:45;;;;;;;8.55;4.40;;;6.60;60.50;;;;;;5051771;28;20114;-68
2021/12/03 06:38:11;;;;;;;11.10;4.93;;;6.60;60.50;;;;;;5051392;28;20047;-67
2021/12/03 06:40:37;;;;;;;8.07;4.55;;;6.60;60.60;;;;;;5051955;28;20029;-67
2021/12/03 06:43:03;;;;;;;9.02;4.50;;;6.50;61.10;;;;;;5051572;28;20428;-66
2021/12/03 06:45:28;;;;;;;9.45;5.40;;;6.50;61.00;;;;;;5051075;28;20044;-68
2021/12/03 06:47:54;;;;;;;10.77;4.55;;;6.50;61.10;;;;;;5051724;28;20104;-70
2021/12/03 06:50:21;;;;;;;13.88;5.18;;;6.60;61.00;;;;;;5050985;28;20484;-74
2021/12/03 06:53:09;;;;;;;12.10;5.13;;;6.50;61.00;;;;;;5033541;28;20033;-68
2021/12/03 06:55:57;;;;;;;11.07;5.60;;;6.60;60.90;;;;;;5051354;28;20067;-66
2021/12/03 06:58:23;;;;;;;8.35;4.38;;;6.70;60.70;;;;;;5050707;28;20021;-69
2021/12/03 07:00:51;;;;;;;9.07;5.05;;;6.60;60.40;;;;;;5033641;28;20030;-70
2021/12/03 07:03:17;;;;;;;11.82;5.22;;;6.60;60.40;;;;;;5050512;28;20037;-64
2021/12/03 07:05:43;;;;;;;11.80;5.00;;;6.50;60.60;;;;;;5051272;28;20516;-66
2021/12/03 07:08:10;;;;;;;14.10;5.13;;;6.60;60.60;;;;;;5051670;28;20033;-67
2021/12/03 07:10:36;;;;;;;11.07;5.35;;;6.60;60.20;;;;;;5033495;28;20029;-68
2021/12/03 07:13:03;;;;;;;12.02;5.50;;;6.50;60.30;;;;;;5051398;28;20029;-67
2021/12/03 07:15:29;;;;;;;8.15;5.00;;;6.60;60.40;;;;;;5050846;28;20025;-68
2021/12/03 07:17:55;;;;;;;8.32;5.07;;;6.60;60.00;;;;;;5051109;28;20083;-70
2021/12/03 07:20:23;;;;;;;8.68;4.53;;;6.70;59.70;;;;;;5050972;28;20033;-67
2021/12/03 07:22:49;;;;;;;9.93;5.13;;;6.70;59.20;;;;;;5051136;28;20119;-67
2021/12/03 07:25:16;;;;;;;11.82;5.60;;;6.70;59.20;;;;;;5037446;28;20044;-68
2021/12/03 07:27:41;;;;;;;13.43;6.43;;;6.80;59.20;;;;;;5071733;28;20028;-70
2021/12/03 07:30:10;;;;;;;13.65;5.70;;;6.70;59.20;;;;;;5074883;28;20350;-73
2021/12/03 07:32:37;;;;;;;9.43;5.38;;;6.80;59.30;;;;;;5075023;28;20036;-68
2021/12/03 07:35:04;;;;;;;11.85;5.15;;;6.80;59.30;;;;;;5073458;28;20177;-67
2021/12/03 07:37:30;;;;;;;15.02;5.20;;;6.90;59.40;;;;;;5073943;28;20029;-73
2021/12/03 07:39:57;;;;;;;12.82;6.53;;;6.90;59.30;;;;;;5074829;28;20419;-69
2021/12/03 07:42:24;;;;;;;14.55;6.35;;;6.80;59.70;;;;;;5074490;28;20032;-68
2021/12/03 07:44:54;;;;;;;14.35;5.90;;;6.90;59.80;;;;;;5074587;28;20052;-71
2021/12/03 07:47:20;;;;;;;10.30;5.72;;;6.90;59.80;;;;;;5073174;28;20020;-66
2021/12/03 07:49:48;;;;;;;10.98;5.60;;;7.00;59.70;;;;;;5074008;28;20028;-69
2021/12/03 07:52:15;;;;;;;20.75;7.38;;;7.10;59.50;;;;;;5072629;28;20025;-71
2021/12/03 07:54:41;;;;;;;19.55;6.70;;;7.10;59.40;;;;;;5072778;28;20039;-66
2021/12/03 07:57:07;;;;;;;8.85;5.68;;;7.10;59.40;;;;;;5073618;28;20381;-69
2021/12/03 07:59:34;;;;;;;12.55;5.75;;;7.10;59.40;;;;;;5073470;28;20025;-71
2021/12/03 08:01:59;;;;;;;10.32;5.70;;;7.20;59.20;;;;;;5073784;28;20432;-69
2021/12/03 08:04:25;;;;;;;9.90;6.32;;;7.20;59.30;;;;;;5073655;28;20466;-66
2021/12/03 08:06:54;;;;;;;13.00;6.05;;;7.20;59.20;;;;;;5074176;28;20032;-68
2021/12/03 08:09:22;;;;;;;11.32;6.70;;;7.20;59.30;;;;;;5073631;28;20029;-69
2021/12/03 08:11:48;;;;;;;9.90;6.68;;;7.20;59.50;;;;;;5072354;28;20048;-68
2021/12/03 08:14:14;;;;;;;15.18;6.28;;;7.40;59.20;;;;;;5073283;28;20024;-68
2021/12/03 08:16:40;;;;;;;10.45;6.78;;;7.50;59.10;;;;;;5073979;28;20032;-69
2021/12/03 08:19:06;;;;;;;12.43;6.75;;;7.50;59.10;;;;;;5074077;28;20348;-68
2021/12/03 08:21:32;;;;;;;10.38;7.40;;;7.50;59.20;;;;;;5073239;28;20392;-69
2021/12/03 08:24:00;;;;;;;15.43;7.32;;;7.60;59.20;;;;;;5072786;28;20164;-73
2021/12/03 08:26:27;;;;;;;16.60;7.70;;;7.60;59.20;;;;;;5059146;28;20127;-68
2021/12/03 08:28:53;;;;;;;9.10;6.82;;;7.60;59.40;;;;;;5053853;28;20048;-74
2021/12/03 08:31:19;;;;;;;11.52;8.00;;;7.60;59.50;;;;;;5035013;28;20025;-69
2021/12/03 08:33:45;;;;;;;10.98;7.35;;;7.50;59.60;;;;;;5053006;28;20040;-68
2021/12/03 08:36:11;;;;;;;10.80;6.93;;;7.50;59.70;;;;;;5035024;28;20528;-70
2021/12/03 08:38:37;;;;;;;10.82;7.10;;;7.40;59.80;;;;;;5052514;28;20057;-67
2021/12/03 08:41:04;;;;;;;9.90;7.35;;;7.40;60.00;;;;;;5035737;28;20025;-71
2021/12/03 08:43:30;;;;;;;9.60;7.28;;;7.30;60.30;;;;;;5052028;28;20114;-71
2021/12/03 08:45:56;;;;;;;13.32;7.07;;;7.30;60.50;;;;;;5053715;28;20025;-71
2021/12/03 08:48:23;;;;;;;12.43;7.47;;;7.30;60.60;;;;;;5035156;28;20037;-73
2021/12/03 08:51:21;;;;;;;10.63;7.10;;;7.20;60.80;;;;;;5035409;28;20075;-69
2021/12/03 08:56:42;;;;;;;12.18;7.50;;;7.30;61.10;;;;;;5052564;28;20040;-72
2021/12/03 08:59:08;;;;;;;15.05;6.97;;;7.30;61.10;;;;;;5034723;28;20025;-67
2021/12/03 09:01:34;;;;;;;10.95;7.10;;;7.30;61.20;;;;;;5034925;28;20027;-69
2021/12/03 09:04:00;;;;;;;14.30;7.38;;;7.20;61.70;;;;;;5034772;28;20037;-69
2021/12/03 09:06:27;;;;;;;21.25;7.05;;;7.20;62.00;;;;;;5046805;28;20120;-70
2021/12/03 09:08:53;;;;;;;15.07;7.05;;;7.10;62.20;;;;;;5052763;28;20112;-65
2021/12/03 09:11:18;;;;;;;8.48;6.28;;;7.10;62.10;;;;;;5034797;28;20473;-69
2021/12/03 09:13:46;;;;;;;11.35;6.65;;;7.00;62.30;;;;;;5052657;28;20029;-63
2021/12/03 09:16:16;;;;;;;11.43;5.45;;;7.10;61.70;;;;;;5052259;28;20056;-70
2021/12/03 09:18:44;;;;;;;14.30;6.95;;;7.10;60.50;;;;;;5052889;28;20029;-70
2021/12/03 09:21:29;;;;;;;8.38;5.93;;;7.20;60.60;;;;;;5051089;28;20181;-65
2021/12/03 09:26:25;;;;;;;9.95;5.70;;;7.40;60.10;;;;;;5051231;28;20079;-68
2021/12/03 09:29:00;;;;;;;11.20;5.50;;;7.50;60.00;;;;;;5052447;28;20028;-66
2021/12/03 09:31:26;;;;;;;11.95;5.93;;;7.50;59.60;;;;;;5034062;28;20025;-65
2021/12/03 09:33:51;;;;;;;11.82;5.28;;;7.50;59.50;;;;;;5052184;28;20037;-68
2021/12/03 09:36:17;;;;;;;9.60;4.93;;;7.40;59.10;;;;;;5033917;28;20445;-65
2021/12/03 09:38:43;;;;;;;11.48;5.35;;;7.50;59.30;;;;;;5052210;28;20037;-63
2021/12/03 09:41:15;;;;;;;9.50;4.68;;;7.60;59.20;;;;;;5051689;28;20017;-67
2021/12/03 09:43:44;;;;;;;5.80;3.92;;;7.60;58.30;;;;;;5052091;28;20033;-71
2021/12/03 09:52:06;;;;;;;8.85;3.50;;;7.60;57.70;;;;;;4970707;28;20045;-62
2021/12/03 09:54:39;;;;;;;7.15;3.60;;;7.60;57.70;;;;;;4970826;28;20089;-71
2021/12/03 09:57:09;;;;;;;6.40;3.85;;;7.70;57.80;;;;;;4970892;28;20038;-69
2021/12/03 10:13:33;;;;;;;12.80;6.95;;;7.60;58.40;;;;;;4950972;28;20526;-67
2021/12/03 10:18:44;;;;;;;10.30;7.28;;;7.60;58.20;;;;;;4970531;28;20495;-70
2021/12/03 10:21:29;;;;;;;18.70;8.73;;;7.80;58.10;;;;;;4970225;28;20026;-67
2021/12/03 10:29:34;;;;;;;12.55;7.50;;;8.30;57.60;;;;;;5051200;28;20175;-71
2021/12/03 10:32:31;;;;;;;11.13;7.95;;;8.90;56.60;;;;;;5049572;28;20441;-68
2021/12/03 10:49:13;;;;;;;13.23;8.57;;;8.80;54.00;;;;;;5051520;28;20083;-67
2021/12/03 12:19:03;;;;;;;14.40;7.13;;;9.50;49.60;;;;;;5053867;28;20044;-66
2021/12/03 12:44:29;;;;;;;11.75;7.55;;;8.60;51.90;;;;;;5053091;28;20478;-67
2021/12/03 12:48:34;;;;;;;10.90;6.90;;;8.50;51.90;;;;;;5053214;28;20096;-66
2021/12/03 13:15:32;;;;;;;10.20;6.30;;;8.60;52.30;;;;;;4952363;29;20027;-70
2021/12/03 13:23:44;;;;;;;9.07;5.80;;;8.70;51.90;;;;;;4972341;28;20041;-76
2021/12/03 14:03:23;;;;;;;12.07;6.15;;;8.30;52.10;;;;;;5071639;28;20040;-73
2021/12/03 14:48:40;;;;;;;16.00;5.63;;;8.00;52.10;;;;;;5051749;28;20029;-71
2021/12/03 14:57:12;;;;;;;10.85;5.57;;;7.80;52.90;;;;;;5055453;28;20035;-62
2021/12/03 14:59:42;;;;;;;9.00;5.38;;;7.80;52.90;;;;;;5055391;28;20053;-64
2021/12/03 15:04:56;;;;;;;7.95;4.82;;;7.90;53.00;;;;;;5056243;28;20039;-61
2021/12/03 15:07:36;;;;;;;13.52;5.85;;;7.80;52.40;;;;;;5041795;28;20021;-63
2021/12/03 15:10:12;;;;;;;8.35;5.30;;;7.80;52.70;;;;;;5039194;28;20158;-61
2021/12/03 15:23:28;;;;;;;6.85;5.10;;;7.60;52.60;;;;;;5057677;28;20033;-61
2021/12/03 15:25:59;;;;;;;8.30;4.95;;;7.60;52.80;;;;;;5055107;28;20070;-62
2021/12/03 15:31:02;;;;;;;8.02;5.20;;;7.40;53.50;;;;;;5075604;28;20427;-64
2021/12/03 15:36:28;;;;;;;8.05;5.35;;;7.30;55.30;;;;;;5075744;28;20136;-62
2021/12/03 15:39:08;;;;;;;7.97;5.32;;;7.20;55.60;;;;;;5076279;28;20047;-64
2021/12/03 16:03:57;;;;;;;12.32;5.88;;;6.80;56.90;;;;;;5070707;28;20436;-63
2021/12/03 16:09:04;;;;;;;12.10;6.00;;;6.70;57.00;;;;;;5071238;28;20035;-70
2021/12/03 16:11:42;;;;;;;8.45;5.95;;;6.70;57.10;;;;;;5073031;28;20024;-68
2021/12/03 16:22:21;;;;;;;10.10;6.38;;;6.60;57.70;;;;;;5073470;28;20085;-69
2021/12/03 16:44:49;;;;;;;11.30;6.78;;;6.20;59.00;;;;;;5072310;28;20346;-64
2021/12/03 16:53:48;;;;;;;11.77;7.18;;;6.20;59.20;;;;;;5072029;28;20028;-65
2021/12/03 16:56:21;;;;;;;12.43;7.85;;;6.10;59.20;;;;;;5068518;28;20036;-61
2021/12/03 16:58:47;;;;;;;11.18;7.05;;;6.20;59.60;;;;;;5070913;28;20036;-64
2021/12/03 17:01:29;;;;;;;12.38;7.55;;;6.10;59.30;;;;;;5069814;28;20378;-62
2021/12/03 17:03:59;;;;;;;10.88;7.43;;;6.10;59.30;;;;;;5070773;28;20500;-66
2021/12/03 17:07:26;;;;;;;11.60;7.85;;;6.10;59.20;;;;;;5070904;28;20036;-63
2021/12/03 17:28:45;;;;;;;12.30;7.78;;;6.00;59.10;;;;;;5050543;28;20057;-64
2021/12/03 17:55:26;;;;;;;15.13;8.75;;;5.80;59.10;;;;;;5035622;28;20037;-64
2021/12/03 18:03:35;;;;;;;11.70;8.82;;;5.80;59.00;;;;;;5026691;28;20210;-65
2021/12/03 18:14:21;;;;;;;11.43;8.32;;;5.70;59.10;;;;;;5034304;28;20037;-64
2021/12/03 18:43:10;;;;;;;13.07;7.70;;;5.70;59.20;;;;;;5050214;28;20033;-67
2021/12/03 18:54:37;;;;;;;14.57;7.80;;;5.70;58.60;;;;;;5050759;28;20399;-65
2021/12/03 18:57:15;;;;;;;12.98;7.68;;;5.70;58.40;;;;;;5051637;28;20055;-61
2021/12/03 18:59:53;;;;;;;38.70;19.73;;;5.70;58.30;;;;;;5050399;28;20060;-60
2021/12/03 19:02:21;;;;;;;10.75;7.63;;;5.70;58.40;;;;;;5051081;28;20079;-64
2021/12/03 19:07:27;;;;;;;11.65;7.57;;;5.70;58.10;;;;;;5050955;28;20359;-62
2021/12/03 19:09:56;;;;;;;14.85;7.72;;;5.60;57.90;;;;;;5051301;28;20074;-61
2021/12/03 19:12:25;;;;;;;9.48;7.50;;;5.70;58.00;;;;;;5051032;28;20036;-61
2021/12/03 19:14:55;;;;;;;12.30;7.80;;;5.60;57.90;;;;;;5032323;28;20083;-60
2021/12/03 19:17:23;;;;;;;9.77;6.93;;;5.70;58.00;;;;;;5032180;28;20021;-60
2021/12/03 19:19:51;;;;;;;13.00;7.43;;;5.60;57.80;;;;;;5050264;28;20070;-62
2021/12/03 19:22:17;;;;;;;10.95;7.20;;;5.60;57.80;;;;;;5050797;28;20063;-61
2021/12/03 19:24:43;;;;;;;11.50;7.35;;;5.60;57.70;;;;;;5052464;28;20053;-62
2021/12/03 19:27:11;;;;;;;10.57;7.53;;;5.60;57.70;;;;;;5053102;28;20123;-60
2021/12/03 19:29:38;;;;;;;9.60;7.07;;;5.60;57.70;;;;;;5053140;28;20194;-60
2021/12/03 19:32:05;;;;;;;13.23;7.90;;;5.50;57.70;;;;;;5036617;28;20099;-61
2021/12/03 19:34:32;;;;;;;11.88;7.72;;;5.50;57.70;;;;;;5036151;28;20036;-61
2021/12/03 19:36:58;;;;;;;19.50;9.70;;;5.50;57.70;;;;;;5036308;28;20029;-62
2021/12/03 19:39:25;;;;;;;14.60;8.25;;;5.50;58.00;;;;;;5035594;28;20476;-64
2021/12/03 19:42:12;;;;;;;29.35;13.60;;;5.50;58.20;;;;;;5035922;28;20654;-59
2021/12/03 19:44:44;;;;;;;29.67;15.90;;;5.50;58.10;;;;;;5053657;28;20037;-61
2021/12/03 19:47:12;;;;;;;16.50;9.82;;;5.40;58.10;;;;;;5053778;28;20508;-59
2021/12/03 19:52:27;;;;;;;22.73;13.60;;;5.50;58.30;;;;;;5055087;28;20382;-54
2021/12/03 19:54:55;;;;;;;30.52;15.15;;;5.50;58.40;;;;;;5054074;28;20036;-62
2021/12/03 19:57:23;;;;;;;33.65;19.30;;;5.50;58.20;;;;;;5036653;28;20143;-61
2021/12/03 19:59:49;;;;;;;17.35;11.02;;;5.40;58.00;;;;;;5054262;28;20031;-58
2021/12/03 20:02:15;;;;;;;24.52;15.15;;;5.40;58.00;;;;;;5054641;28;20389;-57
2021/12/03 20:04:41;;;;;;;100.03;49.00;;;5.40;57.90;;;;;;5036034;28;20470;-60
2021/12/03 20:07:07;;;;;;;44.80;24.58;;;5.50;57.70;;;;;;5053962;28;20082;-59
2021/12/03 20:09:45;;;;;;;53.90;33.22;;;5.40;57.70;;;;;;5035747;28;20025;-61
2021/12/03 20:12:14;;;;;;;17.45;10.98;;;5.40;57.70;;;;;;5054231;28;20025;-62
2021/12/03 20:14:43;;;;;;;27.35;17.92;;;5.40;57.60;;;;;;5034750;28;20025;-61
2021/12/03 20:17:28;;;;;;;18.02;10.75;;;5.40;57.70;;;;;;5035102;28;20029;-62
2021/12/03 20:19:59;;;;;;;15.75;9.55;;;5.40;57.40;;;;;;5053067;28;20021;-61
2021/12/03 20:27:41;;;;;;;14.05;9.02;;;5.30;57.30;;;;;;5053786;28;20057;-62
2021/12/03 20:30:44;;;;;;;15.23;9.05;;;5.30;57.50;;;;;;5054550;28;20041;-62
2021/12/03 20:38:06;;;;;;;12.65;8.63;;;5.20;57.20;;;;;;5054325;28;20332;-61
2021/12/03 20:40:33;;;;;;;13.80;8.20;;;5.20;57.10;;;;;;5053899;28;20143;-60
2021/12/03 20:48:25;;;;;;;17.95;9.57;;;5.20;57.20;;;;;;5054206;28;20032;-60